Clearlake, Washington
Current Conditions -  °F | °C
As of 11:15 AM on Sunday 21 Dec 2014 (Local Time) from KBVS Reporting Station
Overcast Overcast  
Wind Chill: 50°   Ceiling: 4600
Heat Index: 50°   Visibility: 5mi
Dew Point: 46°   Wind: 3mph
Humidity: 87%   Direction: 260°W
Pressure: 29.93"   Gusts: NA
Location:  48.46°N, 122.23°W
Report Text: KBVS 211915Z AUTO 26003KT 5SM FEW020 SCT030 OVC046 10/08 A2993 RMK A01 P001
Loading
Personal Weather Stations






























Interactive Weather Map New forecast layout! Learn more

10-Day Weather Forecast

Advertisements
Track Severe Weather on mobile